Time;durP1;ratioP1;P1;durP2;ratioP2;P2;SDS_P1;SDS_P2;PMS_P1;PMS_P2;Temp;Humidity;BMP_temperature;BMP_pressure;BME280_temperature;BME280_humidity;BME280_pressure;Samples;Min_cycle;Max_cycle;Signal;HPM_P1;HPM_P2
2022/11/16 00:02:11;;;;;;;23.98;19.02;;;;;;;6.32;83.46;99141.63;1743856;80;21142;-73
2022/11/16 00:04:37;;;;;;;24.35;20.55;;;;;;;6.25;83.61;99135.30;1753979;80;21050;-73
2022/11/16 00:07:04;;;;;;;26.77;19.60;;;;;;;6.21;83.77;99137.92;1753487;80;21505;-74
2022/11/16 00:09:31;;;;;;;24.50;18.00;;;;;;;6.22;83.80;99134.28;1764884;80;21057;-74
2022/11/16 00:12:02;;;;;;;23.30;18.92;;;;;;;6.33;83.59;99132.70;1770796;80;20986;-73
2022/11/16 00:14:33;;;;;;;25.43;18.43;;;;;;;6.37;83.47;99127.45;1779368;80;22211;-74
2022/11/16 00:17:00;;;;;;;25.70;19.92;;;;;;;6.32;83.61;99121.84;1772179;79;21696;-73
2022/11/16 00:19:27;;;;;;;23.77;18.80;;;;;;;6.30;83.72;99125.13;1774946;80;22732;-72
2022/11/16 00:21:55;;;;;;;21.60;16.93;;;;;;;6.29;83.75;99121.64;1753476;80;21046;-72
2022/11/16 00:24:22;;;;;;;23.18;19.07;;;;;;;6.35;83.64;99119.37;1750494;80;21085;-73
2022/11/16 00:26:49;;;;;;;22.42;17.52;;;;;;;6.45;83.35;99118.75;1772702;80;21034;-75
2022/11/16 00:29:21;;;;;;;24.18;18.57;;;;;;;6.47;83.32;99111.04;1772662;80;21010;-73
2022/11/16 00:31:48;;;;;;;22.70;19.32;;;;;;;6.44;83.29;99110.52;1769944;80;21056;-73
2022/11/16 00:34:14;;;;;;;24.30;18.45;;;;;;;6.36;83.35;99113.94;1772072;79;21002;-74
2022/11/16 00:36:42;;;;;;;21.62;17.42;;;;;;;6.32;83.50;99119.20;1761160;79;21105;-71
2022/11/16 00:39:13;;;;;;;22.85;17.37;;;;;;;6.39;83.48;99120.20;1734395;81;21197;-73
2022/11/16 00:41:40;;;;;;;22.60;18.70;;;;;;;6.46;83.40;99105.91;1749271;80;21069;-71
2022/11/16 00:44:08;;;;;;;24.57;19.20;;;;;;;6.45;83.46;99106.41;1766285;80;22164;-73
2022/11/16 00:46:37;;;;;;;25.72;19.80;;;;;;;6.46;83.53;99097.50;1778982;80;21521;-72
2022/11/16 00:49:04;;;;;;;22.82;18.80;;;;;;;6.46;83.40;99098.00;1768145;80;21517;-74
2022/11/16 00:51:32;;;;;;;21.37;17.35;;;;;;;6.46;83.32;99094.86;1751510;80;21222;-72
2022/11/16 00:53:59;;;;;;;24.18;18.87;;;;;;;6.58;83.05;99080.07;1770253;80;21509;-72
2022/11/16 00:56:26;;;;;;;25.65;18.92;;;;;;;6.58;82.99;99082.70;1767456;80;21111;-72
2022/11/16 00:58:54;;;;;;;26.97;19.90;;;;;;;6.51;83.11;99075.93;1782821;80;21021;-73
2022/11/16 01:01:20;;;;;;;24.17;19.77;;;;;;;6.45;83.33;99078.71;1781256;80;21037;-73
2022/11/16 01:03:49;;;;;;;24.45;18.73;;;;;;;6.43;83.46;99079.36;1778921;80;21061;-71
2022/11/16 01:06:15;;;;;;;24.45;18.73;;;;;;;6.44;83.45;99078.36;1767099;80;21003;-73
2022/11/16 01:08:43;;;;;;;26.37;19.80;;;;;;;6.56;83.26;99072.81;1751945;81;21545;-72
2022/11/16 01:14:02;;;;;;;24.65;19.55;;;;;;;6.52;83.47;99076.25;1743188;80;21793;-72
2022/11/16 01:16:29;;;;;;;23.95;18.37;;;;;;;6.46;83.57;99069.80;1729261;81;21045;-73
2022/11/16 01:18:55;;;;;;;23.45;18.48;;;;;;;6.49;83.69;99064.71;1768165;80;20985;-73
2022/11/16 01:21:22;;;;;;;26.15;19.23;;;;;;;6.57;83.56;99058.64;1728279;81;21192;-72
2022/11/16 01:23:49;;;;;;;26.77;20.97;;;;;;;6.58;83.72;99057.14;1766155;80;21069;-72
2022/11/16 01:26:16;;;;;;;28.20;20.50;;;;;;;6.53;83.91;99054.64;1737939;80;21013;-73
2022/11/16 01:28:43;;;;;;;26.12;20.88;;;;;;;6.46;84.21;99051.32;1770301;80;21052;-72
2022/11/16 01:31:10;;;;;;;24.98;19.37;;;;;;;6.43;84.38;99047.70;1772157;80;21064;-73
2022/11/16 01:33:37;;;;;;;26.25;18.73;;;;;;;6.45;84.49;99049.69;1780204;80;21288;-73
2022/11/16 01:36:13;;;;;;;23.22;18.25;;;;;;;6.56;84.22;99045.09;1761438;79;21509;-72
2022/11/16 01:38:42;;;;;;;27.22;19.82;;;;;;;6.58;84.32;99046.58;1787556;80;21604;-73
2022/11/16 01:41:17;;;;;;;24.72;19.25;;;;;;;6.50;84.54;99046.56;1777604;80;21018;-72
2022/11/16 01:44:03;;;;;;;28.52;20.62;;;;;;;6.44;84.86;99049.34;1776561;80;22132;-72
2022/11/16 01:46:32;;;;;;;25.90;19.05;;;;;;;6.39;85.03;99046.84;1760829;80;22318;-74
2022/11/16 01:49:12;;;;;;;27.70;20.60;;;;;;;6.42;85.08;99045.21;1749960;80;20998;-73
2022/11/16 01:51:41;;;;;;;28.38;20.62;;;;;;;6.50;84.99;99048.70;1764404;80;21057;-72
2022/11/16 01:54:09;;;;;;;25.52;19.95;;;;;;;6.50;85.17;99047.87;1744197;80;21049;-73
2022/11/16 01:56:38;;;;;;;29.15;22.45;;;;;;;6.47;85.32;99049.50;1754747;80;21000;-73
2022/11/16 01:59:07;;;;;;;32.67;20.68;;;;;;;6.43;85.47;99043.73;1773495;80;21785;-73
2022/11/16 02:01:34;;;;;;;28.05;20.00;;;;;;;6.43;85.63;99042.42;1761164;80;21314;-71
2022/11/16 02:04:01;;;;;;;28.05;21.15;;;;;;;6.50;85.42;99038.64;1773429;80;21025;-71
2022/11/16 02:07:02;;;;;;;25.85;20.35;;;;;;;6.58;85.17;99045.77;1773272;80;21092;-72
2022/11/16 02:09:52;;;;;;;30.88;21.52;;;;;;;6.58;85.26;99037.84;1769417;80;21715;-73
2022/11/16 02:12:46;;;;;;;27.30;20.37;;;;;;;6.52;85.25;99043.27;1779681;80;21255;-72
2022/11/16 02:15:53;;;;;;;26.95;19.85;;;;;;;6.45;85.29;99043.09;1766095;79;21041;-73
2022/11/16 02:18:55;;;;;;;26.50;20.43;;;;;;;6.48;85.25;99043.25;1698451;83;21048;-73
2022/11/16 02:21:42;;;;;;;27.93;21.12;;;;;;;6.52;85.22;99037.98;1730021;81;21105;-73
2022/11/16 02:24:16;;;;;;;26.97;21.35;;;;;;;6.50;85.43;99034.68;1736672;81;21048;-73
2022/11/16 02:27:24;;;;;;;28.55;21.05;;;;;;;6.50;85.62;99035.50;1772837;80;21152;-73
2022/11/16 02:29:53;;;;;;;28.35;19.67;;;;;;;6.49;85.67;99035.69;1725244;82;21105;-72
2022/11/16 02:32:43;;;;;;;26.93;18.87;;;;;;;6.60;85.57;99029.27;1756832;80;21548;-74
2022/11/16 02:35:20;;;;;;;30.75;21.80;;;;;;;6.70;85.26;99028.63;1760209;79;21061;-72
2022/11/16 02:37:55;;;;;;;31.65;21.77;;;;;;;6.62;85.35;99024.16;1773442;80;21100;-73
2022/11/16 02:40:23;;;;;;;31.12;20.62;;;;;;;6.55;85.54;99016.57;1767780;80;21266;-73
2022/11/16 02:42:54;;;;;;;28.38;19.67;;;;;;;6.49;85.63;99011.94;1762543;80;21078;-73
2022/11/16 02:45:24;;;;;;;27.75;20.40;;;;;;;6.50;85.69;99009.11;1769084;80;21018;-72
2022/11/16 02:47:52;;;;;;;32.78;21.85;;;;;;;6.66;85.62;99009.68;1777966;80;21026;-73
2022/11/16 02:50:20;;;;;;;33.15;22.00;;;;;;;6.74;85.66;99007.55;1771656;80;21081;-72
2022/11/16 02:52:47;;;;;;;30.15;22.37;;;;;;;6.79;85.59;99004.42;1785839;80;21245;-71
2022/11/16 02:55:14;;;;;;;28.67;21.00;;;;;;;6.77;85.46;99011.67;1764666;80;21593;-72
2022/11/16 02:57:52;;;;;;;28.80;21.02;;;;;;;6.76;85.56;99012.18;1778287;80;21076;-74
2022/11/16 03:00:25;;;;;;;27.27;20.68;;;;;;;6.81;85.47;99009.86;1765357;80;21014;-73
2022/11/16 03:03:12;;;;;;;31.68;21.80;;;;;;;6.95;85.39;99004.94;1739311;80;21010;-73
2022/11/16 03:05:51;;;;;;;32.03;22.90;;;;;;;6.99;85.45;99003.62;1777586;80;21172;-73
2022/11/16 03:08:41;;;;;;;32.40;23.50;;;;;;;6.95;85.49;99005.75;1761800;80;21036;-72
2022/11/16 03:13:59;;;;;;;27.75;20.57;;;;;;;6.87;85.66;98999.97;1737560;80;21509;-72
2022/11/16 03:16:31;;;;;;;31.97;21.45;;;;;;;6.87;85.39;98997.33;1771165;80;21002;-73
2022/11/16 03:18:58;;;;;;;30.00;21.17;;;;;;;6.91;85.35;98998.33;1747420;80;21139;-73
2022/11/16 03:21:48;;;;;;;33.48;23.22;;;;;;;6.84;85.73;98991.57;1732639;80;21037;-74
2022/11/16 03:24:16;;;;;;;31.27;22.85;;;;;;;6.78;86.37;98993.05;1699121;83;21083;-73
2022/11/16 03:27:14;;;;;;;35.00;24.27;;;;;;;6.83;86.78;98981.98;1682530;83;21165;-73
2022/11/16 03:30:00;;;;;;;36.08;22.45;;;;;;;6.85;86.75;98991.38;1682016;84;21590;-72
2022/11/16 03:32:50;;;;;;;30.80;22.20;;;;;;;6.93;86.40;98987.11;1691388;83;21537;-72
2022/11/16 03:35:37;;;;;;;32.20;21.65;;;;;;;7.00;86.15;98988.13;1704124;83;21066;-74
2022/11/16 03:38:04;;;;;;;31.77;21.48;;;;;;;6.97;86.36;98981.33;1706922;83;22077;-71
2022/11/16 03:40:33;;;;;;;32.23;21.95;;;;;;;6.94;86.59;98976.89;1672504;84;21129;-71
2022/11/16 03:43:01;;;;;;;29.32;20.32;;;;;;;6.94;86.72;98981.67;1717631;83;21014;-72
2022/11/16 03:45:29;;;;;;;29.98;20.57;;;;;;;7.01;86.54;98980.04;1736957;82;21244;-73
2022/11/16 03:47:56;;;;;;;29.63;21.35;;;;;;;7.16;86.10;98985.98;1686340;83;21046;-73
2022/11/16 03:50:23;;;;;;;26.90;19.60;;;;;;;7.20;86.02;98988.62;1704686;83;21058;-72
2022/11/16 03:52:50;;;;;;;29.45;21.52;;;;;;;7.15;85.78;98983.84;1710488;83;21058;-73
2022/11/16 03:55:17;;;;;;;27.98;22.35;;;;;;;7.09;85.74;98983.18;1711164;83;21151;-75
2022/11/16 03:57:44;;;;;;;28.17;20.75;;;;;;;7.03;85.73;98979.85;1764490;80;21080;-74
2022/11/16 04:00:13;;;;;;;24.63;18.40;;;;;;;7.02;85.68;98978.22;1772646;80;21014;-74
2022/11/16 04:02:42;;;;;;;23.92;18.85;;;;;;;7.06;85.22;98972.94;1768169;80;21077;-73
2022/11/16 04:24:39;;;;;;;30.72;21.27;;;;;;;6.22;87.70;98957.09;1703333;82;21258;-71
2022/11/16 04:29:55;;;;;;;25.50;17.73;;;;;;;6.13;88.43;98959.36;1719634;81;21117;-73
2022/11/16 04:37:55;;;;;;;25.77;18.75;;;;;;;6.14;88.68;98949.63;1737551;80;21859;-72
2022/11/16 04:40:28;;;;;;;25.57;17.30;;;;;;;6.03;88.87;98944.98;1751093;81;21076;-71
2022/11/16 04:42:59;;;;;;;23.45;16.85;;;;;;;6.07;88.86;98946.31;1778654;80;21057;-72
2022/11/16 04:48:15;;;;;;;28.67;19.12;;;;;;;6.21;88.78;98942.73;1766802;80;20204;-72
2022/11/16 04:50:44;;;;;;;26.27;18.15;;;;;;;6.16;88.90;98939.75;1737978;82;22159;-73
2022/11/16 04:53:10;;;;;;;31.82;21.90;;;;;;;6.14;89.10;98941.72;1741006;80;21220;-71
2022/11/16 04:55:39;;;;;;;25.25;17.90;;;;;;;6.12;89.04;98941.05;1760078;80;21004;-73
2022/11/16 04:58:06;;;;;;;25.57;18.35;;;;;;;6.15;88.92;98932.34;1775298;80;21002;-71
2022/11/16 05:00:32;;;;;;;24.27;18.70;;;;;;;6.28;88.64;98930.08;1740351;80;21013;-72
2022/11/16 05:02:59;;;;;;;28.42;20.15;;;;;;;6.28;88.42;98938.48;1754230;80;21137;-71
2022/11/16 05:05:26;;;;;;;27.15;21.30;;;;;;;6.19;88.41;98938.12;1771520;80;21093;-70
2022/11/16 05:07:54;;;;;;;27.50;21.93;;;;;;;6.10;88.64;98937.25;1768978;80;21034;-72
2022/11/16 05:10:23;;;;;;;27.82;21.85;;;;;;;6.05;89.06;98940.38;1742548;82;21015;-73
2022/11/16 05:12:50;;;;;;;26.57;20.77;;;;;;;6.09;89.21;98943.02;1766738;80;21194;-73
2022/11/16 05:15:18;;;;;;;26.25;19.37;;;;;;;6.21;89.07;98937.47;1768054;80;21135;-72
2022/11/16 05:17:45;;;;;;;24.70;17.90;;;;;;;6.23;88.98;98936.31;1763119;80;21588;-74
2022/11/16 05:24:32;;;;;;;25.80;18.52;;;;;;;6.18;88.84;98935.98;1702154;82;21081;-73
2022/11/16 05:25:34;;;;;;;24.37;18.23;;;;;;;6.20;88.70;98935.80;1712107;80;21290;-73
2022/11/16 05:29:48;;;;;;;26.70;19.83;;;;;;;6.33;88.44;98934.86;1834606;77;27061;-73
2022/11/16 05:32:15;;;;;;;27.42;19.87;;;;;;;6.24;88.48;98935.84;1790915;80;20956;-73
2022/11/16 05:34:42;;;;;;;25.32;19.40;;;;;;;6.22;88.82;98937.31;1783721;80;21223;-72
2022/11/16 05:37:10;;;;;;;27.32;20.75;;;;;;;6.21;88.74;98943.56;1768677;78;20981;-73
2022/11/16 05:39:37;;;;;;;25.15;18.25;;;;;;;6.26;88.78;98931.23;1772574;80;21027;-73
2022/11/16 05:42:04;;;;;;;26.48;20.17;;;;;;;6.41;88.54;98929.62;1777433;80;21534;-72
2022/11/16 05:44:31;;;;;;;28.55;21.73;;;;;;;6.47;88.52;98926.80;1776005;79;21057;-72
2022/11/16 05:46:58;;;;;;;29.27;23.57;;;;;;;6.50;88.65;98927.81;1781866;79;21222;-73
2022/11/16 05:49:25;;;;;;;29.00;22.83;;;;;;;6.57;88.88;98930.14;1782962;79;21001;-72
2022/11/16 05:51:52;;;;;;;29.75;21.33;;;;;;;6.65;88.68;98924.88;1760878;81;20994;-72
2022/11/16 05:54:23;;;;;;;27.95;20.95;;;;;;;6.76;88.10;98926.38;1770529;80;20994;-72
2022/11/16 05:56:49;;;;;;;27.98;21.55;;;;;;;6.94;87.46;98929.36;1779318;78;21482;-72
2022/11/16 05:59:18;;;;;;;30.23;22.55;;;;;;;6.96;87.27;98924.74;1783308;80;21165;-73
2022/11/16 06:01:45;;;;;;;27.98;21.05;;;;;;;6.96;87.25;98922.10;1782453;78;21514;-74
2022/11/16 06:04:12;;;;;;;27.20;20.92;;;;;;;6.94;87.13;98915.66;1789903;80;21505;-72
2022/11/16 06:06:39;;;;;;;26.48;17.75;;;;;;;6.96;86.91;98924.23;1779657;78;21072;-70
2022/11/16 06:09:05;;;;;;;27.50;19.70;;;;;;;7.01;86.57;98925.05;1748749;79;21012;-72
2022/11/16 06:11:36;;;;;;;23.85;19.42;;;;;;;7.11;86.05;98927.05;1748501;80;21131;-71
2022/11/16 06:14:04;;;;;;;28.23;20.25;;;;;;;7.11;86.08;98921.77;1772276;80;21200;-71
2022/11/16 06:16:32;;;;;;;29.40;20.62;;;;;;;7.10;86.08;98917.47;1778943;78;21050;-72
2022/11/16 06:18:59;;;;;;;30.08;21.05;;;;;;;7.11;86.10;98920.45;1764446;80;21045;-73
2022/11/16 06:21:26;;;;;;;28.02;19.45;;;;;;;7.14;85.89;98919.28;1783179;80;21557;-74
2022/11/16 06:23:53;;;;;;;27.73;19.02;;;;;;;7.21;85.39;98922.41;1782454;78;21243;-72
2022/11/16 06:26:19;;;;;;;31.33;21.70;;;;;;;7.34;84.97;98917.95;1782393;80;20977;-71
2022/11/16 06:28:46;;;;;;;30.62;22.17;;;;;;;7.34;84.85;98913.99;1766796;80;21056;-72
2022/11/16 06:31:13;;;;;;;30.45;22.62;;;;;;;7.34;84.75;98909.17;1763752;81;21045;-72
2022/11/16 06:33:41;;;;;;;34.03;24.12;;;;;;;7.34;84.67;98918.42;1785329;80;21495;-72
2022/11/16 06:36:12;;;;;;;28.00;21.12;;;;;;;7.32;84.58;98914.66;1791822;78;21139;-71
2022/11/16 06:38:40;;;;;;;26.82;20.35;;;;;;;7.37;84.41;98907.03;1788927;80;21092;-72
2022/11/16 06:41:07;;;;;;;34.73;22.65;;;;;;;7.47;84.03;98918.27;1788281;80;21088;-72
2022/11/16 06:43:36;;;;;;;31.60;22.07;;;;;;;7.46;83.99;98913.14;1787913;80;21012;-71
2022/11/16 06:46:03;;;;;;;30.12;22.07;;;;;;;7.42;84.01;98913.97;1782705;78;21048;-72
2022/11/16 06:48:32;;;;;;;33.98;22.37;;;;;;;7.37;83.88;98908.35;1787559;80;21130;-72
2022/11/16 06:50:59;;;;;;;32.33;20.97;;;;;;;7.31;83.89;98898.97;1793197;80;20973;-72
2022/11/16 06:53:27;;;;;;;29.00;20.37;;;;;;;7.32;83.86;98905.88;1793346;78;21010;-71
2022/11/16 06:55:53;;;;;;;24.20;18.77;;;;;;;7.39;83.79;98909.01;1793991;80;21080;-72
2022/11/16 06:58:20;;;;;;;28.47;19.25;;;;;;;7.38;84.04;98910.02;1782503;80;21072;-72
2022/11/16 07:00:47;;;;;;;26.07;18.27;;;;;;;7.32;84.30;98900.59;1780680;80;21286;-73
2022/11/16 07:03:14;;;;;;;23.42;16.48;;;;;;;7.26;84.50;98904.26;1717493;83;21038;-72
2022/11/16 07:05:42;;;;;;;21.55;14.25;;;;;;;7.19;84.80;98903.77;1745410;80;21057;-73
2022/11/16 07:08:11;;;;;;;19.17;14.13;;;;;;;7.18;84.90;98904.75;1732779;82;21038;-73
2022/11/16 07:10:39;;;;;;;18.52;13.83;;;;;;;7.19;84.85;98903.27;1743039;81;21068;-72
2022/11/16 07:13:06;;;;;;;16.70;12.98;;;;;;;7.15;85.16;98907.74;1710182;81;21187;-72
2022/11/16 07:15:33;;;;;;;16.02;12.63;;;;;;;7.05;85.71;98907.41;1751897;80;21074;-71
2022/11/16 07:18:06;;;;;;;15.23;11.48;;;;;;;6.99;86.01;98900.62;1744566;80;21543;-71
2022/11/16 07:20:33;;;;;;;14.33;10.78;;;;;;;6.93;86.27;98902.61;1748904;80;21103;-70
2022/11/16 07:23:03;;;;;;;13.22;10.23;;;;;;;6.91;86.23;98900.13;1728435;81;21012;-72
2022/11/16 07:25:32;;;;;;;12.60;9.68;;;;;;;7.01;86.04;98903.45;1731334;80;21064;-72
2022/11/16 07:27:59;;;;;;;11.90;9.75;;;;;;;6.94;86.14;98905.09;1752962;80;21155;-75
2022/11/16 07:30:26;;;;;;;10.78;9.48;;;;;;;6.87;86.50;98905.41;1756341;81;21066;-75
2022/11/16 07:33:00;;;;;;;12.37;8.85;;;;;;;6.82;86.63;98904.60;1727016;81;21038;-75
2022/11/16 07:35:44;;;;;;;10.53;7.92;;;;;;;6.83;86.58;98903.59;1723963;82;21049;-74
2022/11/16 07:38:11;;;;;;;9.90;7.37;;;;;;;6.89;86.29;98903.44;1734379;81;21137;-74
2022/11/16 07:40:38;;;;;;;11.55;7.78;;;;;;;6.84;86.53;98898.66;1729798;82;21072;-75
2022/11/16 07:43:05;;;;;;;10.65;8.78;;;;;;;6.78;86.90;98899.33;1705862;81;21099;-72
2022/11/16 07:45:33;;;;;;;15.28;8.95;;;;;;;6.74;87.06;98894.52;1705036;80;21033;-74
2022/11/16 07:48:02;;;;;;;9.43;7.90;;;;;;;6.67;87.33;98893.86;1711362;81;21009;-75
2022/11/16 07:50:47;;;;;;;11.95;7.97;;;;;;;6.71;87.05;98894.36;1735900;81;21832;-75
2022/11/16 07:53:15;;;;;;;13.25;8.78;;;;;;;6.76;87.29;98885.47;1715676;83;21076;-75
2022/11/16 07:55:42;;;;;;;14.87;10.43;;;;;;;6.73;87.56;98880.50;1723706;81;21069;-76
2022/11/16 07:58:08;;;;;;;10.08;7.95;;;;;;;6.71;87.67;98882.98;1712265;82;21093;-75
2022/11/16 08:00:37;;;;;;;11.12;7.70;;;;;;;6.67;87.81;98881.98;1747810;81;21064;-75
2022/11/16 08:03:05;;;;;;;10.78;7.83;;;;;;;6.73;87.58;98884.97;1746419;81;22180;-74
2022/11/16 08:05:32;;;;;;;11.30;8.68;;;;;;;6.81;87.42;98887.09;1725068;81;21017;-76
2022/11/16 08:07:58;;;;;;;10.05;7.92;;;;;;;6.81;87.39;98891.06;1737149;80;21104;-74
2022/11/16 08:10:25;;;;;;;10.98;8.20;;;;;;;6.77;87.58;98883.14;1738152;81;21564;-77
2022/11/16 08:12:54;;;;;;;10.80;8.00;;;;;;;6.74;87.70;98887.45;1744738;80;21118;-81
2022/11/16 08:15:23;;;;;;;9.03;6.47;;;;;;;6.75;87.46;98884.30;1698334;83;21110;-71
2022/11/16 08:17:50;;;;;;;8.73;7.28;;;;;;;6.81;87.14;98883.14;1698597;81;21090;-74
2022/11/16 08:20:16;;;;;;;9.95;7.90;;;;;;;6.76;87.34;98880.66;1725529;81;21057;-75
2022/11/16 08:22:46;;;;;;;10.93;8.08;;;;;;;6.72;87.63;98885.94;1742727;80;21025;-77
2022/11/16 08:25:12;;;;;;;10.05;7.85;;;;;;;6.66;87.58;98896.19;1731506;81;21036;-81
2022/11/16 08:27:40;;;;;;;10.68;8.05;;;;;;;6.66;87.63;98888.27;1749241;81;21157;-78
2022/11/16 08:30:08;;;;;;;9.10;7.25;;;;;;;6.75;87.49;98888.27;1740148;81;21553;-78
2022/11/16 08:32:36;;;;;;;9.90;8.18;;;;;;;6.73;87.61;98891.06;1709136;81;21034;-78
2022/11/16 08:35:04;;;;;;;10.82;8.33;;;;;;;6.66;87.89;98897.98;1718589;82;21530;-78
2022/11/16 08:37:32;;;;;;;8.35;6.50;;;;;;;6.62;88.01;98898.80;1757940;80;21544;-78
2022/11/16 08:39:59;;;;;;;9.60;7.15;;;;;;;6.64;87.74;98902.09;1778380;80;21822;-79
2022/11/16 08:42:27;;;;;;;9.88;7.65;;;;;;;6.70;87.59;98897.98;1773964;80;21073;-80
2022/11/16 08:44:53;;;;;;;9.75;7.62;;;;;;;6.68;87.69;98897.31;1772996;80;21050;-82
2022/11/16 08:47:20;;;;;;;12.63;9.45;;;;;;;6.64;88.00;98903.41;1770368;79;20999;-78
2022/11/16 08:49:49;;;;;;;11.15;8.08;;;;;;;6.62;88.20;98901.94;1780018;79;21454;-79
2022/11/16 08:52:16;;;;;;;9.55;7.10;;;;;;;6.66;88.20;98897.98;1769865;80;21133;-78
2022/11/16 08:54:43;;;;;;;8.68;6.90;;;;;;;6.75;87.88;98900.14;1762398;80;20994;-79
2022/11/16 08:57:11;;;;;;;10.38;8.03;;;;;;;6.71;87.68;98895.69;1777568;79;20994;-80
2022/11/16 08:59:38;;;;;;;10.10;7.80;;;;;;;6.60;88.01;98893.36;1753357;79;21576;-81
2022/11/16 09:02:06;;;;;;;10.65;6.90;;;;;;;6.52;88.08;98897.31;1709497;82;21073;-80
2022/11/16 09:04:34;;;;;;;9.88;6.90;;;;;;;6.48;88.08;98897.63;1708609;82;21063;-79
2022/11/16 09:07:01;;;;;;;9.68;7.95;;;;;;;6.56;88.13;98894.67;1695981;84;21115;-78
2022/11/16 09:09:27;;;;;;;10.90;7.87;;;;;;;6.57;88.41;98891.06;1690536;84;21283;-78
2022/11/16 09:11:54;;;;;;;9.55;7.72;;;;;;;6.53;88.59;98891.88;1691172;82;21041;-80
2022/11/16 09:14:21;;;;;;;9.20;6.83;;;;;;;6.49;88.96;98892.69;1684330;84;21671;-77
2022/11/16 09:16:49;;;;;;;10.80;7.05;;;;;;;6.48;89.47;98893.67;1690688;84;21561;-80
2022/11/16 09:19:16;;;;;;;9.30;6.70;;;;;;;6.57;89.25;98886.60;1689395;84;22041;-77
2022/11/16 09:21:44;;;;;;;10.32;7.03;;;;;;;6.56;89.50;98893.36;1691855;84;21041;-79
2022/11/16 09:24:11;;;;;;;10.90;6.83;;;;;;;6.50;89.90;98890.88;1694876;84;21049;-79
2022/11/16 09:26:37;;;;;;;10.32;7.20;;;;;;;6.47;90.14;98888.08;1691782;84;21010;-78
2022/11/16 09:29:04;;;;;;;8.40;6.75;;;;;;;6.44;89.96;98879.66;1698526;83;21205;-77
2022/11/16 09:31:32;;;;;;;12.25;9.65;;;;;;;6.47;89.72;98877.52;1772802;78;21041;-75
2022/11/16 09:33:59;;;;;;;12.13;7.42;;;;;;;6.58;89.37;98881.64;1757315;80;21620;-76
2022/11/16 09:36:27;;;;;;;10.15;7.75;;;;;;;6.59;89.35;98870.61;1778206;80;21018;-79
2022/11/16 09:38:59;;;;;;;10.10;7.78;;;;;;;6.57;89.31;98873.41;1779692;78;21108;-76
2022/11/16 09:41:47;;;;;;;9.48;7.17;;;;;;;6.56;89.35;98873.56;1779740;80;21121;-76
2022/11/16 09:44:47;;;;;;;7.92;6.42;;;;;;;6.62;89.31;98872.41;1781013;80;21589;-78
2022/11/16 09:47:30;;;;;;;10.40;7.60;;;;;;;6.75;89.10;98867.15;1779778;80;21065;-74
2022/11/16 09:50:00;;;;;;;8.68;6.95;;;;;;;6.75;89.09;98869.78;1766588;79;21197;-75
2022/11/16 09:52:37;;;;;;;9.28;6.65;;;;;;;6.69;88.97;98867.31;1786028;80;20990;-76
2022/11/16 09:55:39;;;;;;;9.88;7.15;;;;;;;6.67;89.06;98870.61;1786337;80;21146;-75
2022/11/16 09:58:14;;;;;;;9.80;7.15;;;;;;;6.74;88.81;98862.38;1772852;79;21097;-78
2022/11/16 10:00:45;;;;;;;9.48;6.42;;;;;;;6.80;88.46;98855.11;1754982;80;21034;-73
2022/11/16 10:03:12;;;;;;;8.20;6.85;;;;;;;6.77;88.43;98850.65;1783957;79;21065;-73
2022/11/16 10:05:51;;;;;;;8.95;7.10;;;;;;;6.67;88.35;98848.98;1780025;78;21045;-74
2022/11/16 10:08:43;;;;;;;7.85;6.33;;;;;;;6.61;88.38;98844.38;1760896;80;21214;-75
2022/11/16 10:11:51;;;;;;;9.38;6.55;;;;;;;6.61;88.18;98840.42;1767733;80;21097;-73
2022/11/16 10:14:43;;;;;;;10.35;7.72;;;;;;;6.66;88.16;98842.08;1786120;79;21190;-78
2022/11/16 10:17:33;;;;;;;11.33;8.53;;;;;;;6.64;88.58;98843.21;1772386;78;21019;-77
2022/11/16 10:20:22;;;;;;;10.72;7.45;;;;;;;6.56;88.79;98841.90;1769751;78;21053;-73
2022/11/16 10:23:10;;;;;;;11.78;7.12;;;;;;;6.54;88.50;98847.33;1782640;79;21550;-73
2022/11/16 10:25:42;;;;;;;8.95;7.28;;;;;;;6.62;88.28;98844.69;1771654;78;21021;-77
2022/11/16 10:28:26;;;;;;;8.40;7.40;;;;;;;6.65;88.33;98843.55;1778891;80;21025;-75
2022/11/16 10:31:22;;;;;;;10.72;7.67;;;;;;;6.60;88.49;98840.58;1779617;79;21076;-76
2022/11/16 10:33:51;;;;;;;9.35;7.65;;;;;;;6.56;88.45;98841.90;1770518;79;21081;-77
2022/11/16 10:36:18;;;;;;;10.23;7.90;;;;;;;6.56;88.20;98833.98;1761742;79;21165;-74
2022/11/16 10:38:44;;;;;;;10.03;7.47;;;;;;;6.62;88.05;98822.26;1757983;79;21040;-76
2022/11/16 10:41:18;;;;;;;9.78;8.10;;;;;;;6.59;88.06;98823.92;1763926;80;21045;-73
2022/11/16 10:43:45;;;;;;;9.50;8.25;;;;;;;6.57;88.32;98821.13;1763788;79;21064;-76
2022/11/16 10:46:34;;;;;;;10.78;7.53;;;;;;;6.56;88.25;98819.47;1770123;78;21113;-75
2022/11/16 10:49:17;;;;;;;12.93;8.10;;;;;;;6.60;88.07;98817.64;1764882;79;21859;-77
2022/11/16 10:51:45;;;;;;;10.45;8.63;;;;;;;6.71;87.56;98819.64;1762740;79;21042;-74
2022/11/16 10:54:16;;;;;;;11.28;8.40;;;;;;;6.62;87.77;98814.84;1777646;79;21557;-76
2022/11/16 10:56:48;;;;;;;14.43;9.50;;;;;;;6.60;87.97;98822.10;1775169;79;21068;-74
2022/11/16 10:59:20;;;;;;;11.67;9.00;;;;;;;6.53;88.03;98819.78;1764910;80;21036;-74
2022/11/16 11:01:57;;;;;;;11.85;9.00;;;;;;;6.50;87.94;98827.05;1770256;79;21509;-74
2022/11/16 11:04:30;;;;;;;12.65;9.85;;;;;;;6.58;88.01;98824.91;1773965;79;20994;-76
2022/11/16 11:07:03;;;;;;;13.57;10.33;;;;;;;6.54;87.90;98828.05;1773922;80;21034;-77
2022/11/16 11:09:34;;;;;;;16.27;10.30;;;;;;;6.47;88.18;98822.58;1774020;79;21061;-74
2022/11/16 11:15:21;;;;;;;11.93;9.13;;;;;;;6.46;88.49;98819.63;1775829;79;21151;-75
2022/11/16 11:17:50;;;;;;;12.68;9.00;;;;;;;6.54;88.18;98816.17;1762782;79;21390;-74
2022/11/16 11:20:21;;;;;;;11.10;8.75;;;;;;;6.45;88.30;98816.64;1744693;80;21072;-74
2022/11/16 11:22:58;;;;;;;12.18;8.15;;;;;;;6.39;88.62;98821.27;1758321;80;21513;-75
2022/11/16 11:25:33;;;;;;;10.58;8.25;;;;;;;6.28;88.49;98814.02;1772190;78;21009;-77
2022/11/16 11:28:47;;;;;;;10.95;9.10;;;;;;;6.28;88.53;98821.92;1777794;80;21106;-76
2022/11/16 11:31:25;;;;;;;10.60;8.45;;;;;;;6.31;88.41;98822.08;1778693;78;21026;-78
2022/11/16 11:33:55;;;;;;;14.15;10.60;;;;;;;6.18;88.66;98825.69;1711144;82;21102;-77
2022/11/16 11:36:29;;;;;;;13.30;10.43;;;;;;;6.08;88.84;98816.13;1784668;79;21594;-77
2022/11/16 11:39:08;;;;;;;15.65;9.20;;;;;;;6.01;89.09;98811.67;1779056;79;21082;-77
2022/11/16 11:41:43;;;;;;;12.77;10.70;;;;;;;6.03;88.96;98819.73;1774076;78;21975;-78
2022/11/16 11:44:18;;;;;;;12.88;10.72;;;;;;;6.09;88.79;98813.81;1783817;79;21088;-76
2022/11/16 11:46:52;;;;;;;16.23;11.57;;;;;;;6.02;89.04;98808.84;1775850;79;21037;-76
2022/11/16 11:49:26;;;;;;;19.23;13.35;;;;;;;5.96;89.31;98813.45;1731311;80;21287;-75
2022/11/16 11:51:55;;;;;;;14.18;10.65;;;;;;;5.91;89.40;98812.59;1743476;81;21555;-76
2022/11/16 11:54:29;;;;;;;16.35;11.08;;;;;;;5.94;89.24;98821.17;1718524;82;21101;-76
2022/11/16 11:56:55;;;;;;;15.03;12.07;;;;;;;6.00;89.14;98824.00;1717784;81;21023;-79
2022/11/16 11:59:24;;;;;;;16.35;12.30;;;;;;;6.00;89.33;98829.27;1723811;82;21148;-76
2022/11/16 12:02:03;;;;;;;15.40;11.78;;;;;;;5.97;89.61;98831.41;1698992;82;21106;-75
2022/11/16 12:04:41;;;;;;;15.50;10.78;;;;;;;5.95;89.70;98830.27;1698220;82;21102;-76
2022/11/16 12:07:27;;;;;;;16.12;10.95;;;;;;;5.96;89.48;98833.22;1755936;81;21327;-76
2022/11/16 12:10:16;;;;;;;15.20;11.15;;;;;;;6.06;89.17;98827.31;1760869;78;21032;-75
2022/11/16 12:13:06;;;;;;;17.95;11.65;;;;;;;6.08;89.36;98817.92;1784908;80;21038;-76
2022/11/16 12:15:56;;;;;;;15.80;12.03;;;;;;;6.03;89.22;98814.97;1735745;79;20994;-74
2022/11/16 12:18:54;;;;;;;13.38;10.13;;;;;;;5.96;89.33;98811.31;1788914;78;21053;-76
2022/11/16 12:21:40;;;;;;;13.90;10.82;;;;;;;6.00;89.06;98813.45;1786829;78;21268;-76
2022/11/16 12:24:27;;;;;;;12.40;10.63;;;;;;;6.02;88.81;98810.16;1782915;80;21053;-76
2022/11/16 12:27:17;;;;;;;16.27;12.33;;;;;;;5.96;88.94;98809.50;1771427;80;22055;-76
2022/11/16 12:30:15;;;;;;;17.00;11.83;;;;;;;5.90;89.26;98808.80;1775758;78;20981;-75
2022/11/16 12:33:06;;;;;;;14.43;10.68;;;;;;;5.94;89.36;98810.13;1788782;80;21540;-76
2022/11/16 12:36:01;;;;;;;14.45;10.68;;;;;;;6.04;88.97;98812.14;1788587;80;21127;-77
2022/11/16 12:38:42;;;;;;;13.95;11.35;;;;;;;5.96;89.12;98810.00;1773335;78;21109;-76